sensor_id;sensor_type;location;lat;lon;timestamp;temperature;humidity
22923;DHT22;11627;51.322;22.816;2023-02-28T00:01:32;-1.70;1.00
22923;DHT22;11627;51.322;22.816;2023-02-28T00:04:00;-1.70;1.00
22923;DHT22;11627;51.322;22.816;2023-02-28T00:06:26;-1.70;1.00
22923;DHT22;11627;51.322;22.816;2023-02-28T00:08:54;-1.70;1.00
22923;DHT22;11627;51.322;22.816;2023-02-28T00:11:21;-1.70;1.00
22923;DHT22;11627;51.322;22.816;2023-02-28T00:13:50;-1.80;1.00
22923;DHT22;11627;51.322;22.816;2023-02-28T00:16:22;-1.80;1.00
22923;DHT22;11627;51.322;22.816;2023-02-28T00:18:51;-1.90;1.00
22923;DHT22;11627;51.322;22.816;2023-02-28T00:21:18;-1.90;1.00
22923;DHT22;11627;51.322;22.816;2023-02-28T00:23:46;-1.90;1.00
22923;DHT22;11627;51.322;22.816;2023-02-28T00:26:13;-1.90;1.00
22923;DHT22;11627;51.322;22.816;2023-02-28T00:28:39;-2.00;1.00
22923;DHT22;11627;51.322;22.816;2023-02-28T00:31:08;-2.10;1.00
22923;DHT22;11627;51.322;22.816;2023-02-28T00:33:36;-2.10;1.00
22923;DHT22;11627;51.322;22.816;2023-02-28T00:36:08;-2.20;1.00
22923;DHT22;11627;51.322;22.816;2023-02-28T00:38:37;-2.20;1.00
22923;DHT22;11627;51.322;22.816;2023-02-28T00:41:05;-2.30;1.00
22923;DHT22;11627;51.322;22.816;2023-02-28T00:43:38;-2.30;1.00
22923;DHT22;11627;51.322;22.816;2023-02-28T00:46:10;-2.30;1.00
22923;DHT22;11627;51.322;22.816;2023-02-28T00:48:37;-2.40;1.00
22923;DHT22;11627;51.322;22.816;2023-02-28T00:51:14;-2.40;1.00
22923;DHT22;11627;51.322;22.816;2023-02-28T00:53:43;-2.40;1.00
22923;DHT22;11627;51.322;22.816;2023-02-28T00:56:10;-2.40;1.00
22923;DHT22;11627;51.322;22.816;2023-02-28T00:58:36;-2.40;1.00
22923;DHT22;11627;51.322;22.816;2023-02-28T01:01:05;-2.40;1.00
22923;DHT22;11627;51.322;22.816;2023-02-28T01:03:30;-2.50;1.00
22923;DHT22;11627;51.322;22.816;2023-02-28T01:05:57;-2.50;1.00
22923;DHT22;11627;51.322;22.816;2023-02-28T01:08:26;-2.50;1.00
22923;DHT22;11627;51.322;22.816;2023-02-28T01:11:14;-2.50;1.00
22923;DHT22;11627;51.322;22.816;2023-02-28T01:13:45;-2.60;1.00
22923;DHT22;11627;51.322;22.816;2023-02-28T01:16:13;-2.70;3.10
22923;DHT22;11627;51.322;22.816;2023-02-28T01:18:41;-2.70;12.60
22923;DHT22;11627;51.322;22.816;2023-02-28T01:21:12;-2.70;15.50
22923;DHT22;11627;51.322;22.816;2023-02-28T01:23:45;-2.70;12.90
22923;DHT22;11627;51.322;22.816;2023-02-28T01:26:19;-2.70;8.20
22923;DHT22;11627;51.322;22.816;2023-02-28T01:28:49;-2.70;7.90
22923;DHT22;11627;51.322;22.816;2023-02-28T01:31:17;-2.70;8.30
22923;DHT22;11627;51.322;22.816;2023-02-28T01:33:45;-2.70;12.00
22923;DHT22;11627;51.322;22.816;2023-02-28T01:36:18;-2.70;13.50
22923;DHT22;11627;51.322;22.816;2023-02-28T01:38:46;-2.70;13.60
22923;DHT22;11627;51.322;22.816;2023-02-28T01:41:23;-2.70;14.00
22923;DHT22;11627;51.322;22.816;2023-02-28T01:46:17;-2.60;16.40
22923;DHT22;11627;51.322;22.816;2023-02-28T01:48:50;-2.60;15.60
22923;DHT22;11627;51.322;22.816;2023-02-28T01:51:48;-2.60;13.70
22923;DHT22;11627;51.322;22.816;2023-02-28T01:54:23;-2.60;9.30
22923;DHT22;11627;51.322;22.816;2023-02-28T01:56:54;-2.60;6.90
22923;DHT22;11627;51.322;22.816;2023-02-28T01:59:35;-2.60;3.30
22923;DHT22;11627;51.322;22.816;2023-02-28T02:02:10;-2.60;1.90
22923;DHT22;11627;51.322;22.816;2023-02-28T02:04:50;-2.60;1.00
22923;DHT22;11627;51.322;22.816;2023-02-28T02:07:19;-2.60;1.00
22923;DHT22;11627;51.322;22.816;2023-02-28T02:09:46;-2.70;1.00
22923;DHT22;11627;51.322;22.816;2023-02-28T02:12:31;-2.70;1.00
22923;DHT22;11627;51.322;22.816;2023-02-28T02:17:44;-2.60;1.00
22923;DHT22;11627;51.322;22.816;2023-02-28T02:20:56;-2.60;1.00
22923;DHT22;11627;51.322;22.816;2023-02-28T02:26:43;-2.60;1.00
22923;DHT22;11627;51.322;22.816;2023-02-28T02:32:52;-2.70;4.40
22923;DHT22;11627;51.322;22.816;2023-02-28T02:36:06;-2.80;12.80
22923;DHT22;11627;51.322;22.816;2023-02-28T02:38:53;-2.90;19.90
22923;DHT22;11627;51.322;22.816;2023-02-28T02:44:37;-2.90;29.20
22923;DHT22;11627;51.322;22.816;2023-02-28T02:47:14;-3.00;31.10
22923;DHT22;11627;51.322;22.816;2023-02-28T02:49:49;-3.00;32.90
22923;DHT22;11627;51.322;22.816;2023-02-28T02:52:22;-3.10;34.40
22923;DHT22;11627;51.322;22.816;2023-02-28T02:54:52;-3.10;36.70
22923;DHT22;11627;51.322;22.816;2023-02-28T02:57:29;-3.00;37.00
22923;DHT22;11627;51.322;22.816;2023-02-28T02:59:56;-3.00;36.80
22923;DHT22;11627;51.322;22.816;2023-02-28T03:02:25;-2.90;35.80
22923;DHT22;11627;51.322;22.816;2023-02-28T03:05:26;-3.00;33.40
22923;DHT22;11627;51.322;22.816;2023-02-28T03:07:55;-3.00;33.60
22923;DHT22;11627;51.322;22.816;2023-02-28T03:16:44;-3.10;33.50
22923;DHT22;11627;51.322;22.816;2023-02-28T03:19:37;-3.10;35.10
22923;DHT22;11627;51.322;22.816;2023-02-28T03:25:32;-3.10;35.60
22923;DHT22;11627;51.322;22.816;2023-02-28T03:31:26;-3.30;32.60
22923;DHT22;11627;51.322;22.816;2023-02-28T03:34:08;-3.30;35.70
22923;DHT22;11627;51.322;22.816;2023-02-28T03:36:45;-3.20;39.90
22923;DHT22;11627;51.322;22.816;2023-02-28T03:39:37;-3.30;43.10
22923;DHT22;11627;51.322;22.816;2023-02-28T03:42:13;-3.30;46.40
22923;DHT22;11627;51.322;22.816;2023-02-28T03:44:57;-3.30;48.60
22923;DHT22;11627;51.322;22.816;2023-02-28T03:47:53;-3.30;51.50
22923;DHT22;11627;51.322;22.816;2023-02-28T03:50:43;-3.20;53.20
22923;DHT22;11627;51.322;22.816;2023-02-28T03:55:49;-3.20;57.50
22923;DHT22;11627;51.322;22.816;2023-02-28T04:03:59;-3.30;64.00
22923;DHT22;11627;51.322;22.816;2023-02-28T04:06:27;-3.40;64.60
22923;DHT22;11627;51.322;22.816;2023-02-28T04:08:58;-3.40;66.20
22923;DHT22;11627;51.322;22.816;2023-02-28T04:11:46;-3.40;67.50
22923;DHT22;11627;51.322;22.816;2023-02-28T04:14:17;-3.40;69.10
22923;DHT22;11627;51.322;22.816;2023-02-28T04:16:46;-3.40;69.70
22923;DHT22;11627;51.322;22.816;2023-02-28T04:19:20;-3.50;70.60
22923;DHT22;11627;51.322;22.816;2023-02-28T04:21:55;-3.40;71.70
22923;DHT22;11627;51.322;22.816;2023-02-28T04:24:26;-3.50;70.00
22923;DHT22;11627;51.322;22.816;2023-02-28T04:26:57;-3.60;70.00
22923;DHT22;11627;51.322;22.816;2023-02-28T04:29:30;-3.50;73.10
22923;DHT22;11627;51.322;22.816;2023-02-28T04:32:00;-3.50;74.60
22923;DHT22;11627;51.322;22.816;2023-02-28T04:34:30;-3.50;73.00
22923;DHT22;11627;51.322;22.816;2023-02-28T04:36:58;-3.50;70.80
22923;DHT22;11627;51.322;22.816;2023-02-28T04:39:29;-3.50;69.60
22923;DHT22;11627;51.322;22.816;2023-02-28T04:41:56;-3.40;69.80
22923;DHT22;11627;51.322;22.816;2023-02-28T04:44:25;-3.40;70.60
22923;DHT22;11627;51.322;22.816;2023-02-28T04:46:50;-3.40;71.70
22923;DHT22;11627;51.322;22.816;2023-02-28T04:49:17;-3.40;72.00
22923;DHT22;11627;51.322;22.816;2023-02-28T04:51:45;-3.40;71.20
22923;DHT22;11627;51.322;22.816;2023-02-28T04:54:13;-3.30;70.40
22923;DHT22;11627;51.322;22.816;2023-02-28T04:56:42;-3.30;71.70
22923;DHT22;11627;51.322;22.816;2023-02-28T04:59:09;-3.30;70.90
22923;DHT22;11627;51.322;22.816;2023-02-28T05:01:37;-3.40;73.10
22923;DHT22;11627;51.322;22.816;2023-02-28T05:04:05;-3.40;76.00
22923;DHT22;11627;51.322;22.816;2023-02-28T05:06:33;-3.40;78.50
22923;DHT22;11627;51.322;22.816;2023-02-28T05:09:02;-3.40;82.50
22923;DHT22;11627;51.322;22.816;2023-02-28T05:11:40;-3.50;84.80
22923;DHT22;11627;51.322;22.816;2023-02-28T05:14:13;-3.50;86.60
22923;DHT22;11627;51.322;22.816;2023-02-28T05:16:41;-3.50;86.80
22923;DHT22;11627;51.322;22.816;2023-02-28T05:19:09;-3.50;85.30
22923;DHT22;11627;51.322;22.816;2023-02-28T05:21:54;-3.50;86.80
22923;DHT22;11627;51.322;22.816;2023-02-28T05:24:21;-3.60;87.10
22923;DHT22;11627;51.322;22.816;2023-02-28T05:26:51;-3.60;88.50
22923;DHT22;11627;51.322;22.816;2023-02-28T05:29:20;-3.60;90.00
22923;DHT22;11627;51.322;22.816;2023-02-28T05:31:49;-3.60;90.60
22923;DHT22;11627;51.322;22.816;2023-02-28T05:34:16;-3.60;91.40
22923;DHT22;11627;51.322;22.816;2023-02-28T05:36:44;-3.50;91.70
22923;DHT22;11627;51.322;22.816;2023-02-28T05:39:11;-4.20;91.50
22923;DHT22;11627;51.322;22.816;2023-02-28T05:41:57;-3.40;91.50
22923;DHT22;11627;51.322;22.816;2023-02-28T05:44:25;-3.40;90.70
22923;DHT22;11627;51.322;22.816;2023-02-28T05:46:52;-3.40;90.10
22923;DHT22;11627;51.322;22.816;2023-02-28T05:49:18;-3.30;88.50
22923;DHT22;11627;51.322;22.816;2023-02-28T05:51:47;-3.20;83.50
22923;DHT22;11627;51.322;22.816;2023-02-28T05:54:15;-3.10;82.70
22923;DHT22;11627;51.322;22.816;2023-02-28T05:56:42;-3.10;79.10
22923;DHT22;11627;51.322;22.816;2023-02-28T05:59:27;-3.00;75.20
22923;DHT22;11627;51.322;22.816;2023-02-28T06:01:55;-2.90;70.10
22923;DHT22;11627;51.322;22.816;2023-02-28T06:04:23;-2.90;66.00
22923;DHT22;11627;51.322;22.816;2023-02-28T06:06:50;-2.80;62.70
22923;DHT22;11627;51.322;22.816;2023-02-28T06:09:37;-2.80;57.40
22923;DHT22;11627;51.322;22.816;2023-02-28T06:12:06;-2.90;55.90
22923;DHT22;11627;51.322;22.816;2023-02-28T06:14:38;-2.80;54.40
22923;DHT22;11627;51.322;22.816;2023-02-28T06:17:12;-2.80;53.30
22923;DHT22;11627;51.322;22.816;2023-02-28T06:19:39;-2.80;52.90
22923;DHT22;11627;51.322;22.816;2023-02-28T06:22:10;-2.80;52.00
22923;DHT22;11627;51.322;22.816;2023-02-28T06:24:38;-2.70;51.80
22923;DHT22;11627;51.322;22.816;2023-02-28T06:27:03;-2.60;50.30
22923;DHT22;11627;51.322;22.816;2023-02-28T06:29:34;-2.50;50.80
22923;DHT22;11627;51.322;22.816;2023-02-28T06:32:04;-2.50;48.10
22923;DHT22;11627;51.322;22.816;2023-02-28T06:34:30;-2.40;47.70
22923;DHT22;11627;51.322;22.816;2023-02-28T06:36:59;-2.30;45.90
22923;DHT22;11627;51.322;22.816;2023-02-28T06:39:34;-2.30;41.50
22923;DHT22;11627;51.322;22.816;2023-02-28T06:42:03;-2.20;33.80
22923;DHT22;11627;51.322;22.816;2023-02-28T06:44:29;-2.20;29.30
22923;DHT22;11627;51.322;22.816;2023-02-28T06:47:01;-2.00;25.20
22923;DHT22;11627;51.322;22.816;2023-02-28T06:49:31;-2.00;18.10
22923;DHT22;11627;51.322;22.816;2023-02-28T06:51:59;-1.90;13.80
22923;DHT22;11627;51.322;22.816;2023-02-28T06:54:27;-1.90;3.60
22923;DHT22;11627;51.322;22.816;2023-02-28T06:56:54;-1.90;1.00
22923;DHT22;11627;51.322;22.816;2023-02-28T06:59:20;-1.80;1.00
22923;DHT22;11627;51.322;22.816;2023-02-28T07:01:48;-1.80;1.00
22923;DHT22;11627;51.322;22.816;2023-02-28T07:04:16;-1.70;1.00
22923;DHT22;11627;51.322;22.816;2023-02-28T07:06:43;-1.60;1.00
22923;DHT22;11627;51.322;22.816;2023-02-28T07:09:09;-1.50;1.00
22923;DHT22;11627;51.322;22.816;2023-02-28T07:11:38;-1.50;1.00
22923;DHT22;11627;51.322;22.816;2023-02-28T07:14:06;-1.40;1.00
22923;DHT22;11627;51.322;22.816;2023-02-28T07:16:35;-1.40;1.00
22923;DHT22;11627;51.322;22.816;2023-02-28T07:19:02;-1.40;1.00
22923;DHT22;11627;51.322;22.816;2023-02-28T07:21:32;-1.40;1.00
22923;DHT22;11627;51.322;22.816;2023-02-28T07:23:58;-1.30;1.00
22923;DHT22;11627;51.322;22.816;2023-02-28T07:26:25;-1.20;1.00
22923;DHT22;11627;51.322;22.816;2023-02-28T07:28:54;-1.20;1.00
22923;DHT22;11627;51.322;22.816;2023-02-28T07:31:19;-1.10;1.00
22923;DHT22;11627;51.322;22.816;2023-02-28T07:33:45;-1.10;1.00
22923;DHT22;11627;51.322;22.816;2023-02-28T07:36:16;-1.00;1.00
22923;DHT22;11627;51.322;22.816;2023-02-28T07:38:47;-1.10;1.00
22923;DHT22;11627;51.322;22.816;2023-02-28T07:41:22;-1.00;1.00
22923;DHT22;11627;51.322;22.816;2023-02-28T07:43:53;-1.00;1.00
22923;DHT22;11627;51.322;22.816;2023-02-28T07:46:23;-0.90;1.00
22923;DHT22;11627;51.322;22.816;2023-02-28T07:48:51;-0.80;1.00
22923;DHT22;11627;51.322;22.816;2023-02-28T07:51:22;-0.80;1.00
22923;DHT22;11627;51.322;22.816;2023-02-28T07:53:47;-0.70;1.00
22923;DHT22;11627;51.322;22.816;2023-02-28T07:56:15;-0.80;1.00
22923;DHT22;11627;51.322;22.816;2023-02-28T07:58:42;-0.80;1.00
22923;DHT22;11627;51.322;22.816;2023-02-28T08:01:09;-1.10;1.00
22923;DHT22;11627;51.322;22.816;2023-02-28T08:03:38;-0.90;1.00
22923;DHT22;11627;51.322;22.816;2023-02-28T08:06:08;-0.80;1.00
22923;DHT22;11627;51.322;22.816;2023-02-28T08:08:42;-0.70;1.00
22923;DHT22;11627;51.322;22.816;2023-02-28T08:11:14;-0.70;1.00
22923;DHT22;11627;51.322;22.816;2023-02-28T08:13:44;-0.80;99.90
22923;DHT22;11627;51.322;22.816;2023-02-28T08:16:13;-0.80;1.00
22923;DHT22;11627;51.322;22.816;2023-02-28T08:18:52;-0.80;1.00
22923;DHT22;11627;51.322;22.816;2023-02-28T08:21:20;-0.60;1.00
22923;DHT22;11627;51.322;22.816;2023-02-28T08:23:52;-0.60;1.00
22923;DHT22;11627;51.322;22.816;2023-02-28T08:26:20;-0.50;1.00
22923;DHT22;11627;51.322;22.816;2023-02-28T08:28:46;-0.40;99.90
22923;DHT22;11627;51.322;22.816;2023-02-28T08:31:15;-0.40;1.00
22923;DHT22;11627;51.322;22.816;2023-02-28T08:33:44;-0.30;1.00
22923;DHT22;11627;51.322;22.816;2023-02-28T08:36:11;-0.30;1.00
22923;DHT22;11627;51.322;22.816;2023-02-28T08:38:38;-0.30;1.00
22923;DHT22;11627;51.322;22.816;2023-02-28T08:41:16;-0.20;1.00
22923;DHT22;11627;51.322;22.816;2023-02-28T08:43:45;-0.20;99.90
22923;DHT22;11627;51.322;22.816;2023-02-28T08:46:12;-0.30;99.90
22923;DHT22;11627;51.322;22.816;2023-02-28T08:48:41;-0.20;99.90
22923;DHT22;11627;51.322;22.816;2023-02-28T08:51:13;-0.20;99.90
22923;DHT22;11627;51.322;22.816;2023-02-28T08:53:44;-0.20;99.90
22923;DHT22;11627;51.322;22.816;2023-02-28T08:56:18;-0.10;99.90
22923;DHT22;11627;51.322;22.816;2023-02-28T08:58:47;-0.10;99.90
22923;DHT22;11627;51.322;22.816;2023-02-28T09:01:28;-0.20;99.90
22923;DHT22;11627;51.322;22.816;2023-02-28T09:03:56;-0.20;99.90
22923;DHT22;11627;51.322;22.816;2023-02-28T09:06:26;-0.10;99.90
22923;DHT22;11627;51.322;22.816;2023-02-28T09:08:52;-0.20;99.90
22923;DHT22;11627;51.322;22.816;2023-02-28T09:11:19;-0.10;99.90
22923;DHT22;11627;51.322;22.816;2023-02-28T09:13:49;-0.10;99.90
22923;DHT22;11627;51.322;22.816;2023-02-28T09:16:17;-0.40;99.90
22923;DHT22;11627;51.322;22.816;2023-02-28T09:18:53;-0.30;99.90
22923;DHT22;11627;51.322;22.816;2023-02-28T09:21:20;-0.30;99.90
22923;DHT22;11627;51.322;22.816;2023-02-28T09:23:49;-0.30;99.90
22923;DHT22;11627;51.322;22.816;2023-02-28T09:26:24;-0.10;99.90
22923;DHT22;11627;51.322;22.816;2023-02-28T09:29:00;0.10;99.90
22923;DHT22;11627;51.322;22.816;2023-02-28T09:31:28;0.30;99.90
22923;DHT22;11627;51.322;22.816;2023-02-28T09:33:58;0.40;99.90
22923;DHT22;11627;51.322;22.816;2023-02-28T09:36:29;0.60;99.90
22923;DHT22;11627;51.322;22.816;2023-02-28T09:38:58;0.50;99.90
22923;DHT22;11627;51.322;22.816;2023-02-28T09:41:41;0.70;99.90
22923;DHT22;11627;51.322;22.816;2023-02-28T09:47:25;-0.10;99.90
22923;DHT22;11627;51.322;22.816;2023-02-28T09:49:52;0.30;99.90
22923;DHT22;11627;51.322;22.816;2023-02-28T09:52:30;0.30;99.90
22923;DHT22;11627;51.322;22.816;2023-02-28T09:55:39;0.20;99.90
22923;DHT22;11627;51.322;22.816;2023-02-28T09:58:31;0.40;99.90
22923;DHT22;11627;51.322;22.816;2023-02-28T10:01:27;0.50;99.90
22923;DHT22;11627;51.322;22.816;2023-02-28T10:07:21;0.70;99.90
22923;DHT22;11627;51.322;22.816;2023-02-28T10:09:54;0.80;99.90
22923;DHT22;11627;51.322;22.816;2023-02-28T10:12:22;0.60;99.90
22923;DHT22;11627;51.322;22.816;2023-02-28T10:14:51;0.60;99.90
22923;DHT22;11627;51.322;22.816;2023-02-28T10:17:23;0.10;99.90
22923;DHT22;11627;51.322;22.816;2023-02-28T10:19:56;0.00;99.90
22923;DHT22;11627;51.322;22.816;2023-02-28T10:22:58;0.30;99.90
22923;DHT22;11627;51.322;22.816;2023-02-28T10:25:28;0.40;99.90
22923;DHT22;11627;51.322;22.816;2023-02-28T10:28:09;0.50;99.90
22923;DHT22;11627;51.322;22.816;2023-02-28T10:30:56;0.60;99.90
22923;DHT22;11627;51.322;22.816;2023-02-28T10:33:34;0.50;99.90
22923;DHT22;11627;51.322;22.816;2023-02-28T10:36:18;0.60;99.90
22923;DHT22;11627;51.322;22.816;2023-02-28T10:38:47;0.60;99.90
22923;DHT22;11627;51.322;22.816;2023-02-28T10:41:36;0.70;99.90
22923;DHT22;11627;51.322;22.816;2023-02-28T10:44:22;0.80;99.90
22923;DHT22;11627;51.322;22.816;2023-02-28T10:46:48;1.00;99.90
22923;DHT22;11627;51.322;22.816;2023-02-28T10:49:21;0.50;99.90
22923;DHT22;11627;51.322;22.816;2023-02-28T10:51:51;0.20;99.90
22923;DHT22;11627;51.322;22.816;2023-02-28T10:54:36;0.40;99.90
22923;DHT22;11627;51.322;22.816;2023-02-28T10:57:31;0.50;99.90
22923;DHT22;11627;51.322;22.816;2023-02-28T11:00:14;0.50;99.90
22923;DHT22;11627;51.322;22.816;2023-02-28T11:02:43;0.60;99.90
22923;DHT22;11627;51.322;22.816;2023-02-28T11:05:27;0.50;99.90
22923;DHT22;11627;51.322;22.816;2023-02-28T11:07:56;0.60;99.90
22923;DHT22;11627;51.322;22.816;2023-02-28T11:10:27;0.70;99.90
22923;DHT22;11627;51.322;22.816;2023-02-28T11:12:56;0.70;99.90
22923;DHT22;11627;51.322;22.816;2023-02-28T11:15:37;0.80;99.90
22923;DHT22;11627;51.322;22.816;2023-02-28T11:18:24;0.80;99.90
22923;DHT22;11627;51.322;22.816;2023-02-28T11:20:54;0.90;99.90
22923;DHT22;11627;51.322;22.816;2023-02-28T11:23:29;0.90;99.90
22923;DHT22;11627;51.322;22.816;2023-02-28T11:26:07;0.80;99.90
22923;DHT22;11627;51.322;22.816;2023-02-28T11:28:41;1.00;99.90
22923;DHT22;11627;51.322;22.816;2023-02-28T11:31:18;1.00;99.90
22923;DHT22;11627;51.322;22.816;2023-02-28T11:33:55;1.10;99.90
22923;DHT22;11627;51.322;22.816;2023-02-28T11:36:37;1.20;99.90
22923;DHT22;11627;51.322;22.816;2023-02-28T11:39:12;1.30;99.90
22923;DHT22;11627;51.322;22.816;2023-02-28T11:45:14;1.00;99.90
22923;DHT22;11627;51.322;22.816;2023-02-28T11:48:06;1.00;99.90
22923;DHT22;11627;51.322;22.816;2023-02-28T11:50:54;1.30;99.90
22923;DHT22;11627;51.322;22.816;2023-02-28T11:53:39;1.20;99.90
22923;DHT22;11627;51.322;22.816;2023-02-28T11:57:30;1.20;99.90
22923;DHT22;11627;51.322;22.816;2023-02-28T12:02:53;0.90;99.90
22923;DHT22;11627;51.322;22.816;2023-02-28T12:06:01;1.20;99.90
22923;DHT22;11627;51.322;22.816;2023-02-28T12:09:02;1.10;99.90
22923;DHT22;11627;51.322;22.816;2023-02-28T12:17:54;1.30;99.90
22923;DHT22;11627;51.322;22.816;2023-02-28T12:20:51;1.50;99.90
22923;DHT22;11627;51.322;22.816;2023-02-28T12:26:19;1.60;99.90
22923;DHT22;11627;51.322;22.816;2023-02-28T12:32:14;1.70;99.90
22923;DHT22;11627;51.322;22.816;2023-02-28T12:34:47;1.80;99.90
22923;DHT22;11627;51.322;22.816;2023-02-28T12:37:29;1.80;25.60
22923;DHT22;11627;51.322;22.816;2023-02-28T12:40:03;1.90;48.50
22923;DHT22;11627;51.322;22.816;2023-02-28T12:42:36;2.00;1.30
22923;DHT22;11627;51.322;22.816;2023-02-28T12:45:12;1.90;99.90
22923;DHT22;11627;51.322;22.816;2023-02-28T12:47:45;1.90;99.90
22923;DHT22;11627;51.322;22.816;2023-02-28T12:50:19;1.90;99.90
22923;DHT22;11627;51.322;22.816;2023-02-28T12:53:09;2.20;99.90
22923;DHT22;11627;51.322;22.816;2023-02-28T12:59:01;2.40;99.90
22923;DHT22;11627;51.322;22.816;2023-02-28T13:07:58;2.40;21.10
22923;DHT22;11627;51.322;22.816;2023-02-28T13:10:42;2.30;48.80
22923;DHT22;11627;51.322;22.816;2023-02-28T13:13:16;2.20;99.90
22923;DHT22;11627;51.322;22.816;2023-02-28T13:16:07;2.20;99.90
22923;DHT22;11627;51.322;22.816;2023-02-28T13:18:41;2.30;99.90
22923;DHT22;11627;51.322;22.816;2023-02-28T13:21:23;2.50;96.30
22923;DHT22;11627;51.322;22.816;2023-02-28T13:34:37;2.30;99.50
22923;DHT22;11627;51.322;22.816;2023-02-28T13:48:01;2.40;43.60
22923;DHT22;11627;51.322;22.816;2023-02-28T13:50:40;2.50;93.90
22923;DHT22;11627;51.322;22.816;2023-02-28T13:53:48;2.30;65.90
22923;DHT22;11627;51.322;22.816;2023-02-28T13:56:44;2.70;89.50
22923;DHT22;11627;51.322;22.816;2023-02-28T13:59:23;2.90;22.00
22923;DHT22;11627;51.322;22.816;2023-02-28T14:02:32;2.70;99.90
22923;DHT22;11627;51.322;22.816;2023-02-28T14:05:21;2.70;1.00
22923;DHT22;11627;51.322;22.816;2023-02-28T14:08:03;3.10;1.00
22923;DHT22;11627;51.322;22.816;2023-02-28T14:10:47;3.60;99.90
22923;DHT22;11627;51.322;22.816;2023-02-28T14:13:42;4.40;99.90
22923;DHT22;11627;51.322;22.816;2023-02-28T14:16:14;5.90;1.00
22923;DHT22;11627;51.322;22.816;2023-02-28T14:19:09;6.60;99.90
22923;DHT22;11627;51.322;22.816;2023-02-28T14:27:43;4.60;99.90
22923;DHT22;11627;51.322;22.816;2023-02-28T14:36:36;5.20;1.00
22923;DHT22;11627;51.322;22.816;2023-02-28T14:39:24;4.80;1.00
22923;DHT22;11627;51.322;22.816;2023-02-28T14:41:58;4.70;99.90
22923;DHT22;11627;51.322;22.816;2023-02-28T14:44:31;4.90;99.90
22923;DHT22;11627;51.322;22.816;2023-02-28T14:46:59;4.30;99.90
22923;DHT22;11627;51.322;22.816;2023-02-28T14:49:36;3.90;99.90
22923;DHT22;11627;51.322;22.816;2023-02-28T14:52:30;3.70;99.90
22923;DHT22;11627;51.322;22.816;2023-02-28T14:55:05;3.30;1.00
22923;DHT22;11627;51.322;22.816;2023-02-28T14:57:41;3.00;99.90
22923;DHT22;11627;51.322;22.816;2023-02-28T15:00:33;3.10;1.00
22923;DHT22;11627;51.322;22.816;2023-02-28T15:03:30;4.00;99.90
22923;DHT22;11627;51.322;22.816;2023-02-28T15:05:59;4.10;1.00
22923;DHT22;11627;51.322;22.816;2023-02-28T15:08:26;4.10;99.90
22923;DHT22;11627;51.322;22.816;2023-02-28T15:11:15;4.20;85.30
22923;DHT22;11627;51.322;22.816;2023-02-28T15:13:49;4.70;99.90
22923;DHT22;11627;51.322;22.816;2023-02-28T15:16:35;5.00;98.00
22923;DHT22;11627;51.322;22.816;2023-02-28T15:19:25;4.90;1.00
22923;DHT22;11627;51.322;22.816;2023-02-28T15:22:01;4.50;99.90
22923;DHT22;11627;51.322;22.816;2023-02-28T15:24:50;4.50;10.10
22923;DHT22;11627;51.322;22.816;2023-02-28T15:27:30;3.90;1.00
22923;DHT22;11627;51.322;22.816;2023-02-28T15:30:08;3.30;1.00
22923;DHT22;11627;51.322;22.816;2023-02-28T15:32:45;3.10;74.10
22923;DHT22;11627;51.322;22.816;2023-02-28T15:35:31;2.90;99.90
22923;DHT22;11627;51.322;22.816;2023-02-28T15:38:23;2.40;99.90
22923;DHT22;11627;51.322;22.816;2023-02-28T15:40:57;2.30;99.90
22923;DHT22;11627;51.322;22.816;2023-02-28T15:43:26;2.10;99.90
22923;DHT22;11627;51.322;22.816;2023-02-28T15:49:19;1.70;99.90
22923;DHT22;11627;51.322;22.816;2023-02-28T15:51:50;1.60;99.90
22923;DHT22;11627;51.322;22.816;2023-02-28T15:54:35;1.70;99.90
22923;DHT22;11627;51.322;22.816;2023-02-28T15:57:05;2.00;99.90
22923;DHT22;11627;51.322;22.816;2023-02-28T15:59:36;1.90;99.90
22923;DHT22;11627;51.322;22.816;2023-02-28T16:02:20;1.80;99.90
22923;DHT22;11627;51.322;22.816;2023-02-28T16:07:38;1.40;99.90
22923;DHT22;11627;51.322;22.816;2023-02-28T16:10:05;1.30;99.90
22923;DHT22;11627;51.322;22.816;2023-02-28T16:12:35;1.10;99.90
22923;DHT22;11627;51.322;22.816;2023-02-28T16:15:19;0.90;99.90
22923;DHT22;11627;51.322;22.816;2023-02-28T16:17:48;0.80;1.00
22923;DHT22;11627;51.322;22.816;2023-02-28T16:20:29;0.60;1.00
22923;DHT22;11627;51.322;22.816;2023-02-28T16:22:57;0.50;1.00
22923;DHT22;11627;51.322;22.816;2023-02-28T16:25:38;0.40;1.00
22923;DHT22;11627;51.322;22.816;2023-02-28T16:28:31;0.40;1.00
22923;DHT22;11627;51.322;22.816;2023-02-28T16:31:05;0.20;1.00
22923;DHT22;11627;51.322;22.816;2023-02-28T16:33:36;0.20;1.00
22923;DHT22;11627;51.322;22.816;2023-02-28T16:36:01;0.20;1.00
22923;DHT22;11627;51.322;22.816;2023-02-28T16:38:30;0.20;1.00
22923;DHT22;11627;51.322;22.816;2023-02-28T16:40:58;0.20;1.00
22923;DHT22;11627;51.322;22.816;2023-02-28T16:43:26;0.20;1.00
22923;DHT22;11627;51.322;22.816;2023-02-28T16:45:58;0.10;1.00
22923;DHT22;11627;51.322;22.816;2023-02-28T16:48:25;-0.90;1.00
22923;DHT22;11627;51.322;22.816;2023-02-28T16:50:52;0.00;1.00
22923;DHT22;11627;51.322;22.816;2023-02-28T16:53:21;0.00;1.00
22923;DHT22;11627;51.322;22.816;2023-02-28T16:55:48;0.10;1.00
22923;DHT22;11627;51.322;22.816;2023-02-28T16:58:17;0.00;1.00
22923;DHT22;11627;51.322;22.816;2023-02-28T17:00:46;0.00;1.00
22923;DHT22;11627;51.322;22.816;2023-02-28T17:05:49;-0.10;1.00
22923;DHT22;11627;51.322;22.816;2023-02-28T17:08:18;-0.10;1.00
22923;DHT22;11627;51.322;22.816;2023-02-28T17:10:56;-0.20;1.00
22923;DHT22;11627;51.322;22.816;2023-02-28T17:13:24;-0.20;1.00
22923;DHT22;11627;51.322;22.816;2023-02-28T17:15:50;-0.20;1.00
22923;DHT22;11627;51.322;22.816;2023-02-28T17:18:20;-0.20;1.00
22923;DHT22;11627;51.322;22.816;2023-02-28T17:20:51;-0.20;1.00
22923;DHT22;11627;51.322;22.816;2023-02-28T17:23:20;-0.20;1.00
22923;DHT22;11627;51.322;22.816;2023-02-28T17:25:53;-0.10;1.00
22923;DHT22;11627;51.322;22.816;2023-02-28T17:28:20;-0.10;1.00
22923;DHT22;11627;51.322;22.816;2023-02-28T17:30:49;-0.10;1.00
22923;DHT22;11627;51.322;22.816;2023-02-28T17:33:17;-0.10;1.00
22923;DHT22;11627;51.322;22.816;2023-02-28T17:35:49;-0.20;1.00
22923;DHT22;11627;51.322;22.816;2023-02-28T17:38:19;-0.30;1.00
22923;DHT22;11627;51.322;22.816;2023-02-28T17:40:50;-0.30;1.00
22923;DHT22;11627;51.322;22.816;2023-02-28T17:43:24;-0.30;1.00
22923;DHT22;11627;51.322;22.816;2023-02-28T17:45:52;-0.30;1.10
22923;DHT22;11627;51.322;22.816;2023-02-28T17:48:18;-0.40;3.60
22923;DHT22;11627;51.322;22.816;2023-02-28T17:50:46;-0.60;8.10
22923;DHT22;11627;51.322;22.816;2023-02-28T17:53:13;-0.60;8.30
22923;DHT22;11627;51.322;22.816;2023-02-28T17:55:42;-0.70;8.90
22923;DHT22;11627;51.322;22.816;2023-02-28T17:58:10;-0.60;9.80
22923;DHT22;11627;51.322;22.816;2023-02-28T18:00:38;-0.70;9.90
22923;DHT22;11627;51.322;22.816;2023-02-28T18:03:06;-0.70;9.00
22923;DHT22;11627;51.322;22.816;2023-02-28T18:05:36;-0.70;6.90